Sanko Independence — A8QJ9 — position and weather

sailwx.info

Track history (hours):
 
Tides and Currents Weather Stations Pressure Air Temp Water Temp Dewpoint Dewpoint Depression Visibility Wind Speed Wind Dir Waves Ship Positions

Sanko Independence

Last reported at 2014-Sep-22 13:33 UTC. Time now 2014-Sep-22 14:18 UTC.
Position N 40°44' E 028°55'.

Length 174 m; draft 7.3 m.

Type: Ship (hazmat cat C). MMSI: 636013946.

Date/timePositionNaut miles runAvg speedWind from/ knotsBaromVisibWave heightAir tempDewpointWater temp
2014-Sep-22 13:33N 40°44' E 028°55'1 0.7
2014-Sep-22 12:33N 40°45' E 028°55'1 0.6
2014-Sep-22 11:33N 40°45' E 028°55'1 0.6
2014-Sep-22 10:33N 40°46' E 028°54'1 0.8
2014-Sep-22 09:31N 40°47' E 028°54'2 1.7
2014-Sep-22 08:32N 40°48' E 028°53'1414.5
2014-Sep-22 07:32N 40°50' E 028°34'1515.0
2014-Sep-22 06:33N 40°47' E 028°15'24011.4
2014-Sep-21 09:26N 37°55' E 024°37'1616.9
2014-Sep-21 08:29N 37°40' E 024°30'1716.4
2014-Sep-21 07:27N 37°26' E 024°19'1416.0
2014-Sep-21 06:33N 37°14' E 024°09'1413.0
2014-Sep-21 05:31N 37°03' E 023°59'1616.3
2014-Sep-21 04:33N 36°50' E 023°48'1716.7
2014-Sep-21 03:33N 36°36' E 023°36'8515.6
2014-Sep-20 22:05N 35°53' E 022°05'917.3
2014-Sep-20 21:33N 35°51' E 021°54'30817.0
2014-Sep-20 03:27N 34°51' E 015°43'5416.8
2014-Sep-20 00:14N 34°41' E 014°39'1116.5
2014-Sep-19 23:33N 34°39' E 014°26'1716.6
2014-Sep-19 22:34N 34°36' E 014°06'1716.4
2014-Sep-19 21:31N 34°33' E 013°45'1516.1
2014-Sep-19 20:34N 34°30' E 013°27'1616.1
2014-Sep-19 19:34N 34°27' E 013°08'1616.3
2014-Sep-19 18:33N 34°24' E 012°48'2116.5
2014-Sep-19 17:16N 34°19' E 012°23'1316.6
2014-Sep-19 16:28N 34°17' E 012°07'1716.6
2014-Sep-19 15:26N 34°14' E 011°47'1416.5
2014-Sep-19 14:34N 34°11' E 011°30'1616.3
2014-Sep-19 13:33N 34°10' E 011°10'1916.3
2014-Sep-19 12:22N 34°10' E 010°47'1315.7
2014-Sep-19 11:32N 34°07' E 010°31'1616.2
2014-Sep-19 10:34N 33°59' E 010°15'8 7.8
2014-Sep-19 09:31N 33°55' E 010°06'0 0.0
2014-Sep-19 08:31N 33°55' E 010°06'0 0.0
2014-Sep-18 23:07N 33°55' E 010°06'0 0.0
2014-Sep-18 22:31N 33°55' E 010°06'0 0.0
2014-Sep-18 21:31N 33°55' E 010°06'0 0.0
2014-Sep-18 20:31N 33°55' E 010°06'0 0.0
2014-Sep-18 19:31N 33°55' E 010°06'0 0.0
2014-Sep-18 17:04N 33°55' E 010°06'0 0.0
2014-Sep-18 16:22N 33°55' E 010°06'0 0.0
2014-Sep-18 13:10N 33°55' E 010°06'0 0.0
2014-Sep-18 12:04N 33°55' E 010°06'0 0.0
2014-Sep-18 09:31N 33°55' E 010°06'0 0.0
2014-Sep-18 08:31N 33°55' E 010°06'0 0.0
2014-Sep-18 07:31N 33°55' E 010°06'0 0.0
2014-Sep-18 06:31N 33°55' E 010°06'0 0.0
2014-Sep-18 05:10N 33°55' E 010°06'0 0.0
2014-Sep-18 04:28N 33°55' E 010°06'0 0.0
2014-Sep-18 02:28N 33°55' E 010°06'0 0.0
2014-Sep-18 01:31N 33°55' E 010°06'0 0.0
2014-Sep-18 00:31N 33°55' E 010°06'0 0.0
2014-Sep-17 18:19N 33°55' E 010°06'0 0.0
2014-Sep-17 16:31N 33°55' E 010°06'0 0.0
2014-Sep-17 15:13N 33°55' E 010°06'0 0.0
2014-Sep-17 14:28N 33°55' E 010°06'1 0.1
2014-Sep-17 08:21N 33°55' E 010°07'2 1.0
2014-Sep-17 06:13N 33°56' E 010°09'0 0.0
2014-Sep-17 05:13N 33°56' E 010°09'32 4.1
2014-Sep-16 21:33N 34°09' E 010°44'3414.2
2014-Sep-16 19:11N 34°10' E 011°25'1214.2
2014-Sep-16 18:21N 34°15' E 011°38'1012.7
2014-Sep-16 17:33N 34°19' E 011°49'1212.2
2014-Sep-16 16:34N 34°07' E 011°48'6 6.4
2014-Sep-16 15:33N 34°01' E 011°48'4 1.4
2014-Sep-16 12:33N 33°57' E 011°46'1313.5
2014-Sep-16 11:33N 33°49' E 011°59'1 1.0
2014-Sep-16 10:33N 33°48' E 011°59'7 6.5
2014-Sep-16 09:32N 33°52' E 011°53'1515.1
2014-Sep-16 08:32N 34°03' E 011°40'1713.5
2014-Sep-16 07:19N 34°10' E 011°22'1313.9
2014-Sep-16 06:21N 34°13' E 011°38'1114.0
2014-Sep-16 05:33N 34°15' E 011°51'1614.2
2014-Sep-16 04:24N 34°17' E 012°11'1214.3
2014-Sep-16 03:33N 34°20' E 012°25'1414.4
2014-Sep-16 02:33N 34°23' E 012°42'1414.5
2014-Sep-16 01:33N 34°26' E 012°60'3014.4
2014-Sep-15 23:29N 34°31' E 013°35'9714.0
2014-Sep-15 16:33N 34°50' E 015°31'1414.1
2014-Sep-15 15:33N 34°53' E 015°48'1413.8
2014-Sep-15 14:33N 34°55' E 016°05'1414.1
2014-Sep-15 13:33N 34°58' E 016°22'1414.2
2014-Sep-15 12:33N 35°01' E 016°39'35113.8
2014-Sep-14 11:10N 36°35' E 023°36'914.4
2014-Sep-14 10:33N 36°43' E 023°42'1514.6
2014-Sep-14 09:31N 36°55' E 023°52'1515.0
2014-Sep-14 08:33N 37°08' E 024°01'1514.8
2014-Sep-14 07:32N 37°20' E 024°12'1414.6
2014-Sep-14 06:33N 37°32' E 024°22'1414.4
2014-Sep-14 05:33N 37°44' E 024°32'3314.5
2014-Sep-14 03:17N 38°15' E 024°47'1114.8
2014-Sep-14 02:34N 38°24' E 024°53'1514.5
2014-Sep-14 01:34N 38°37' E 025°02'5814.5
2014-Sep-13 21:34N 39°30' E 025°34'168 6.7
2014-Sep-12 20:33N 40°54' E 028°45'9 9.3
2014-Sep-12 19:33N 40°57' E 028°56'5 4.0
2014-Sep-12 18:25N 41°01' E 028°60'  
Track history (hours):
 
Tides and Currents Weather Stations Pressure Air Temp Water Temp Dewpoint Dewpoint Depression Visibility Wind Speed Wind Dir Waves Ship Positions

Sanko Independence

Last reported at 2014-Sep-22 13:33 UTC. Time now 2014-Sep-22 14:18 UTC.
Position N 40°44' E 028°55'.

Length 174 m; draft 7.3 m.

Type: Ship (hazmat cat C). MMSI: 636013946.

Date/timePositionNaut miles runAvg speedWind from/ knotsBaromVisibWave heightAir tempDewpointWater temp
2014-Sep-22 13:33N 40°44' E 028°55'1 0.7
2014-Sep-22 12:33N 40°45' E 028°55'1 0.6
2014-Sep-22 11:33N 40°45' E 028°55'1 0.6
2014-Sep-22 10:33N 40°46' E 028°54'1 0.8
2014-Sep-22 09:31N 40°47' E 028°54'2 1.7
2014-Sep-22 08:32N 40°48' E 028°53'1414.5
2014-Sep-22 07:32N 40°50' E 028°34'1515.0
2014-Sep-22 06:33N 40°47' E 028°15'24011.4
2014-Sep-21 09:26N 37°55' E 024°37'1616.9
2014-Sep-21 08:29N 37°40' E 024°30'1716.4
2014-Sep-21 07:27N 37°26' E 024°19'1416.0
2014-Sep-21 06:33N 37°14' E 024°09'1413.0
2014-Sep-21 05:31N 37°03' E 023°59'1616.3
2014-Sep-21 04:33N 36°50' E 023°48'1716.7
2014-Sep-21 03:33N 36°36' E 023°36'8515.6
2014-Sep-20 22:05N 35°53' E 022°05'917.3
2014-Sep-20 21:33N 35°51' E 021°54'30817.0
2014-Sep-20 03:27N 34°51' E 015°43'5416.8
2014-Sep-20 00:14N 34°41' E 014°39'1116.5
2014-Sep-19 23:33N 34°39' E 014°26'1716.6
2014-Sep-19 22:34N 34°36' E 014°06'1716.4
2014-Sep-19 21:31N 34°33' E 013°45'1516.1
2014-Sep-19 20:34N 34°30' E 013°27'1616.1
2014-Sep-19 19:34N 34°27' E 013°08'1616.3
2014-Sep-19 18:33N 34°24' E 012°48'2116.5
2014-Sep-19 17:16N 34°19' E 012°23'1316.6
2014-Sep-19 16:28N 34°17' E 012°07'1716.6
2014-Sep-19 15:26N 34°14' E 011°47'1416.5
2014-Sep-19 14:34N 34°11' E 011°30'1616.3
2014-Sep-19 13:33N 34°10' E 011°10'1916.3
2014-Sep-19 12:22N 34°10' E 010°47'1315.7
2014-Sep-19 11:32N 34°07' E 010°31'1616.2
2014-Sep-19 10:34N 33°59' E 010°15'8 7.8
2014-Sep-19 09:31N 33°55' E 010°06'0 0.0
2014-Sep-19 08:31N 33°55' E 010°06'0 0.0
2014-Sep-18 23:07N 33°55' E 010°06'0 0.0
2014-Sep-18 22:31N 33°55' E 010°06'0 0.0
2014-Sep-18 21:31N 33°55' E 010°06'0 0.0
2014-Sep-18 20:31N 33°55' E 010°06'0 0.0
2014-Sep-18 19:31N 33°55' E 010°06'0 0.0
2014-Sep-18 17:04N 33°55' E 010°06'0 0.0
2014-Sep-18 16:22N 33°55' E 010°06'0 0.0
2014-Sep-18 13:10N 33°55' E 010°06'0 0.0
2014-Sep-18 12:04N 33°55' E 010°06'0 0.0
2014-Sep-18 09:31N 33°55' E 010°06'0 0.0
2014-Sep-18 08:31N 33°55' E 010°06'0 0.0
2014-Sep-18 07:31N 33°55' E 010°06'0 0.0
2014-Sep-18 06:31N 33°55' E 010°06'0 0.0
2014-Sep-18 05:10N 33°55' E 010°06'0 0.0
2014-Sep-18 04:28N 33°55' E 010°06'0 0.0
2014-Sep-18 02:28N 33°55' E 010°06'0 0.0
2014-Sep-18 01:31N 33°55' E 010°06'0 0.0
2014-Sep-18 00:31N 33°55' E 010°06'0 0.0
2014-Sep-17 18:19N 33°55' E 010°06'0 0.0
2014-Sep-17 16:31N 33°55' E 010°06'0 0.0
2014-Sep-17 15:13N 33°55' E 010°06'0 0.0
2014-Sep-17 14:28N 33°55' E 010°06'1 0.1
2014-Sep-17 08:21N 33°55' E 010°07'2 1.0
2014-Sep-17 06:13N 33°56' E 010°09'0 0.0
2014-Sep-17 05:13N 33°56' E 010°09'32 4.1
2014-Sep-16 21:33N 34°09' E 010°44'3414.2
2014-Sep-16 19:11N 34°10' E 011°25'1214.2
2014-Sep-16 18:21N 34°15' E 011°38'1012.7
2014-Sep-16 17:33N 34°19' E 011°49'1212.2
2014-Sep-16 16:34N 34°07' E 011°48'6 6.4
2014-Sep-16 15:33N 34°01' E 011°48'4 1.4
2014-Sep-16 12:33N 33°57' E 011°46'1313.5
2014-Sep-16 11:33N 33°49' E 011°59'1 1.0
2014-Sep-16 10:33N 33°48' E 011°59'7 6.5
2014-Sep-16 09:32N 33°52' E 011°53'1515.1
2014-Sep-16 08:32N 34°03' E 011°40'1713.5
2014-Sep-16 07:19N 34°10' E 011°22'1313.9
2014-Sep-16 06:21N 34°13' E 011°38'1114.0
2014-Sep-16 05:33N 34°15' E 011°51'1614.2
2014-Sep-16 04:24N 34°17' E 012°11'1214.3
2014-Sep-16 03:33N 34°20' E 012°25'1414.4
2014-Sep-16 02:33N 34°23' E 012°42'1414.5
2014-Sep-16 01:33N 34°26' E 012°60'3014.4
2014-Sep-15 23:29N 34°31' E 013°35'9714.0
2014-Sep-15 16:33N 34°50' E 015°31'1414.1
2014-Sep-15 15:33N 34°53' E 015°48'1413.8
2014-Sep-15 14:33N 34°55' E 016°05'1414.1
2014-Sep-15 13:33N 34°58' E 016°22'1414.2
2014-Sep-15 12:33N 35°01' E 016°39'35113.8
2014-Sep-14 11:10N 36°35' E 023°36'914.4
2014-Sep-14 10:33N 36°43' E 023°42'1514.6
2014-Sep-14 09:31N 36°55' E 023°52'1515.0
2014-Sep-14 08:33N 37°08' E 024°01'1514.8
2014-Sep-14 07:32N 37°20' E 024°12'1414.6
2014-Sep-14 06:33N 37°32' E 024°22'1414.4
2014-Sep-14 05:33N 37°44' E 024°32'3314.5
2014-Sep-14 03:17N 38°15' E 024°47'1114.8
2014-Sep-14 02:34N 38°24' E 024°53'1514.5
2014-Sep-14 01:34N 38°37' E 025°02'5814.5
2014-Sep-13 21:34N 39°30' E 025°34'168 6.7
2014-Sep-12 20:33N 40°54' E 028°45'9 9.3
2014-Sep-12 19:33N 40°57' E 028°56'5 4.0
2014-Sep-12 18:25N 41°01' E 028°60'  

Dump ship's entire track history